sensor_id;sensor_type;location;lat;lon;timestamp;P1;durP1;ratioP1;P2;durP2;ratioP2
40367;SDS011;26075;43.320;21.920;2022-12-29T00:01:12;81.03;;;53.15;;
40367;SDS011;26075;43.320;21.920;2022-12-29T00:06:13;82.25;;;52.40;;
40367;SDS011;26075;43.320;21.920;2022-12-29T00:11:15;66.95;;;46.80;;
40367;SDS011;26075;43.320;21.920;2022-12-29T00:16:21;72.75;;;48.42;;
40367;SDS011;26075;43.320;21.920;2022-12-29T00:27:15;73.35;;;49.75;;
40367;SDS011;26075;43.320;21.920;2022-12-29T00:32:35;77.22;;;50.33;;
40367;SDS011;26075;43.320;21.920;2022-12-29T00:43:52;71.55;;;47.53;;
40367;SDS011;26075;43.320;21.920;2022-12-29T00:55:08;72.30;;;48.83;;
40367;SDS011;26075;43.320;21.920;2022-12-29T01:00:09;76.75;;;51.50;;
40367;SDS011;26075;43.320;21.920;2022-12-29T01:05:11;84.20;;;55.97;;
40367;SDS011;26075;43.320;21.920;2022-12-29T01:10:12;98.90;;;65.32;;
40367;SDS011;26075;43.320;21.920;2022-12-29T01:15:14;120.93;;;79.55;;
40367;SDS011;26075;43.320;21.920;2022-12-29T01:20:15;138.55;;;92.35;;
40367;SDS011;26075;43.320;21.920;2022-12-29T01:25:16;145.02;;;95.90;;
40367;SDS011;26075;43.320;21.920;2022-12-29T01:30:17;148.40;;;98.78;;
40367;SDS011;26075;43.320;21.920;2022-12-29T01:35:18;156.32;;;101.50;;
40367;SDS011;26075;43.320;21.920;2022-12-29T01:40:19;158.30;;;101.03;;
40367;SDS011;26075;43.320;21.920;2022-12-29T01:45:20;144.60;;;96.30;;
40367;SDS011;26075;43.320;21.920;2022-12-29T02:01:19;129.88;;;85.88;;
40367;SDS011;26075;43.320;21.920;2022-12-29T02:06:22;111.25;;;75.60;;
40367;SDS011;26075;43.320;21.920;2022-12-29T02:11:26;118.43;;;77.85;;
40367;SDS011;26075;43.320;21.920;2022-12-29T02:54:42;46.33;;;32.10;;
40367;SDS011;26075;43.320;21.920;2022-12-29T02:59:43;77.47;;;52.25;;
40367;SDS011;26075;43.320;21.920;2022-12-29T03:32:49;76.38;;;52.17;;
40367;SDS011;26075;43.320;21.920;2022-12-29T03:43:41;49.13;;;34.85;;
40367;SDS011;26075;43.320;21.920;2022-12-29T03:48:42;53.50;;;38.38;;
40367;SDS011;26075;43.320;21.920;2022-12-29T03:53:43;49.03;;;35.72;;
40367;SDS011;26075;43.320;21.920;2022-12-29T03:58:45;52.90;;;35.97;;
40367;SDS011;26075;43.320;21.920;2022-12-29T04:03:46;52.95;;;38.85;;
40367;SDS011;26075;43.320;21.920;2022-12-29T04:08:47;54.10;;;36.42;;
40367;SDS011;26075;43.320;21.920;2022-12-29T04:13:48;50.90;;;36.63;;
40367;SDS011;26075;43.320;21.920;2022-12-29T04:18:49;49.58;;;36.85;;
40367;SDS011;26075;43.320;21.920;2022-12-29T04:23:50;53.20;;;36.63;;
40367;SDS011;26075;43.320;21.920;2022-12-29T04:28:51;56.33;;;38.08;;
40367;SDS011;26075;43.320;21.920;2022-12-29T04:33:52;65.30;;;44.60;;
40367;SDS011;26075;43.320;21.920;2022-12-29T04:38:53;59.13;;;40.90;;
40367;SDS011;26075;43.320;21.920;2022-12-29T04:43:54;67.85;;;43.72;;
40367;SDS011;26075;43.320;21.920;2022-12-29T04:54:20;72.33;;;46.80;;
40367;SDS011;26075;43.320;21.920;2022-12-29T04:59:21;71.78;;;47.80;;
40367;SDS011;26075;43.320;21.920;2022-12-29T05:04:22;67.60;;;46.60;;
40367;SDS011;26075;43.320;21.920;2022-12-29T05:15:05;72.05;;;46.88;;
40367;SDS011;26075;43.320;21.920;2022-12-29T05:20:07;75.05;;;45.47;;
40367;SDS011;26075;43.320;21.920;2022-12-29T05:25:08;56.25;;;38.42;;
40367;SDS011;26075;43.320;21.920;2022-12-29T05:30:12;63.13;;;42.50;;
40367;SDS011;26075;43.320;21.920;2022-12-29T05:35:13;65.70;;;41.47;;
40367;SDS011;26075;43.320;21.920;2022-12-29T05:40:14;69.53;;;41.35;;
40367;SDS011;26075;43.320;21.920;2022-12-29T05:45:15;58.42;;;39.72;;
40367;SDS011;26075;43.320;21.920;2022-12-29T05:50:15;59.63;;;38.25;;
40367;SDS011;26075;43.320;21.920;2022-12-29T05:55:16;61.70;;;39.88;;
40367;SDS011;26075;43.320;21.920;2022-12-29T06:00:28;51.88;;;35.75;;
40367;SDS011;26075;43.320;21.920;2022-12-29T06:05:29;56.33;;;34.85;;
40367;SDS011;26075;43.320;21.920;2022-12-29T06:10:30;65.10;;;38.22;;
40367;SDS011;26075;43.320;21.920;2022-12-29T06:15:31;64.80;;;41.83;;
40367;SDS011;26075;43.320;21.920;2022-12-29T06:20:32;62.38;;;38.65;;
40367;SDS011;26075;43.320;21.920;2022-12-29T06:31:30;76.30;;;40.55;;
40367;SDS011;26075;43.320;21.920;2022-12-29T06:36:31;61.03;;;38.80;;
40367;SDS011;26075;43.320;21.920;2022-12-29T06:41:32;65.68;;;38.53;;
40367;SDS011;26075;43.320;21.920;2022-12-29T06:46:49;47.20;;;29.25;;
40367;SDS011;26075;43.320;21.920;2022-12-29T06:51:49;83.50;;;50.42;;
40367;SDS011;26075;43.320;21.920;2022-12-29T06:56:51;90.22;;;55.95;;
40367;SDS011;26075;43.320;21.920;2022-12-29T07:02:01;93.05;;;55.80;;
40367;SDS011;26075;43.320;21.920;2022-12-29T07:07:02;95.72;;;58.90;;
40367;SDS011;26075;43.320;21.920;2022-12-29T07:12:03;79.22;;;52.55;;
40367;SDS011;26075;43.320;21.920;2022-12-29T07:17:04;86.80;;;52.05;;
40367;SDS011;26075;43.320;21.920;2022-12-29T07:22:06;73.97;;;46.55;;
40367;SDS011;26075;43.320;21.920;2022-12-29T07:27:07;78.80;;;46.33;;
40367;SDS011;26075;43.320;21.920;2022-12-29T07:32:08;71.05;;;46.83;;
40367;SDS011;26075;43.320;21.920;2022-12-29T07:37:09;78.50;;;48.85;;
40367;SDS011;26075;43.320;21.920;2022-12-29T07:42:10;76.95;;;47.83;;
40367;SDS011;26075;43.320;21.920;2022-12-29T07:47:11;91.70;;;55.67;;
40367;SDS011;26075;43.320;21.920;2022-12-29T07:52:12;117.75;;;64.97;;
40367;SDS011;26075;43.320;21.920;2022-12-29T07:57:13;124.72;;;77.15;;
40367;SDS011;26075;43.320;21.920;2022-12-29T08:02:14;127.82;;;78.88;;
40367;SDS011;26075;43.320;21.920;2022-12-29T08:07:15;109.68;;;65.88;;
40367;SDS011;26075;43.320;21.920;2022-12-29T08:12:16;99.35;;;59.83;;
40367;SDS011;26075;43.320;21.920;2022-12-29T08:17:17;102.53;;;61.88;;
40367;SDS011;26075;43.320;21.920;2022-12-29T08:22:18;95.35;;;62.33;;
40367;SDS011;26075;43.320;21.920;2022-12-29T08:27:19;107.65;;;63.38;;
40367;SDS011;26075;43.320;21.920;2022-12-29T08:32:20;116.55;;;69.20;;
40367;SDS011;26075;43.320;21.920;2022-12-29T08:37:21;115.60;;;74.63;;
40367;SDS011;26075;43.320;21.920;2022-12-29T08:42:22;110.03;;;73.30;;
40367;SDS011;26075;43.320;21.920;2022-12-29T08:47:23;110.50;;;74.05;;
40367;SDS011;26075;43.320;21.920;2022-12-29T08:52:24;101.65;;;72.90;;
40367;SDS011;26075;43.320;21.920;2022-12-29T08:57:25;106.32;;;71.80;;
40367;SDS011;26075;43.320;21.920;2022-12-29T09:02:28;92.85;;;63.65;;
40367;SDS011;26075;43.320;21.920;2022-12-29T09:07:29;101.47;;;63.83;;
40367;SDS011;26075;43.320;21.920;2022-12-29T09:12:30;83.45;;;58.08;;
40367;SDS011;26075;43.320;21.920;2022-12-29T09:17:31;76.93;;;49.33;;
40367;SDS011;26075;43.320;21.920;2022-12-29T09:22:42;73.35;;;48.47;;
40367;SDS011;26075;43.320;21.920;2022-12-29T09:27:43;70.55;;;47.78;;
40367;SDS011;26075;43.320;21.920;2022-12-29T09:32:45;75.22;;;47.67;;
40367;SDS011;26075;43.320;21.920;2022-12-29T09:37:50;62.75;;;44.38;;
40367;SDS011;26075;43.320;21.920;2022-12-29T09:48:04;66.90;;;46.30;;
40367;SDS011;26075;43.320;21.920;2022-12-29T09:58:18;56.47;;;39.20;;
40367;SDS011;26075;43.320;21.920;2022-12-29T10:03:27;55.65;;;36.67;;
40367;SDS011;26075;43.320;21.920;2022-12-29T10:08:49;59.58;;;43.95;;
40367;SDS011;26075;43.320;21.920;2022-12-29T10:19:51;55.83;;;43.80;;
40367;SDS011;26075;43.320;21.920;2022-12-29T10:24:50;52.47;;;39.28;;
40367;SDS011;26075;43.320;21.920;2022-12-29T10:29:55;58.03;;;35.97;;
40367;SDS011;26075;43.320;21.920;2022-12-29T10:34:58;42.35;;;30.77;;
40367;SDS011;26075;43.320;21.920;2022-12-29T10:40:38;44.92;;;32.20;;
40367;SDS011;26075;43.320;21.920;2022-12-29T10:45:36;44.13;;;31.92;;
40367;SDS011;26075;43.320;21.920;2022-12-29T10:50:37;42.97;;;32.55;;
40367;SDS011;26075;43.320;21.920;2022-12-29T10:56:00;41.00;;;32.28;;
40367;SDS011;26075;43.320;21.920;2022-12-29T11:01:07;40.17;;;32.00;;
40367;SDS011;26075;43.320;21.920;2022-12-29T11:06:25;38.88;;;29.13;;
40367;SDS011;26075;43.320;21.920;2022-12-29T11:11:27;39.33;;;29.63;;
40367;SDS011;26075;43.320;21.920;2022-12-29T11:16:34;40.25;;;29.20;;
40367;SDS011;26075;43.320;21.920;2022-12-29T11:21:37;44.10;;;29.88;;
40367;SDS011;26075;43.320;21.920;2022-12-29T11:31:44;48.42;;;31.67;;
40367;SDS011;26075;43.320;21.920;2022-12-29T11:42:41;45.28;;;31.60;;
40367;SDS011;26075;43.320;21.920;2022-12-29T11:53:47;41.78;;;30.92;;
40367;SDS011;26075;43.320;21.920;2022-12-29T12:09:37;41.13;;;30.45;;
40367;SDS011;26075;43.320;21.920;2022-12-29T12:15:02;42.05;;;28.83;;
40367;SDS011;26075;43.320;21.920;2022-12-29T12:20:21;41.08;;;29.00;;
40367;SDS011;26075;43.320;21.920;2022-12-29T12:25:37;36.50;;;27.92;;
40367;SDS011;26075;43.320;21.920;2022-12-29T12:30:44;38.40;;;26.25;;
40367;SDS011;26075;43.320;21.920;2022-12-29T12:46:41;35.58;;;26.70;;
40367;SDS011;26075;43.320;21.920;2022-12-29T13:03:08;39.92;;;23.52;;
40367;SDS011;26075;43.320;21.920;2022-12-29T13:13:35;35.38;;;22.42;;
40367;SDS011;26075;43.320;21.920;2022-12-29T13:19:01;42.45;;;24.55;;
40367;SDS011;26075;43.320;21.920;2022-12-29T13:30:10;44.33;;;24.95;;
40367;SDS011;26075;43.320;21.920;2022-12-29T13:40:36;41.83;;;26.75;;
40367;SDS011;26075;43.320;21.920;2022-12-29T13:45:41;47.78;;;30.50;;
40367;SDS011;26075;43.320;21.920;2022-12-29T13:50:55;50.72;;;32.92;;
40367;SDS011;26075;43.320;21.920;2022-12-29T14:01:40;53.15;;;33.03;;
40367;SDS011;26075;43.320;21.920;2022-12-29T14:07:06;53.58;;;34.35;;
40367;SDS011;26075;43.320;21.920;2022-12-29T14:18:10;43.88;;;30.88;;
40367;SDS011;26075;43.320;21.920;2022-12-29T14:23:34;52.85;;;34.88;;
40367;SDS011;26075;43.320;21.920;2022-12-29T14:39:27;76.40;;;50.90;;
40367;SDS011;26075;43.320;21.920;2022-12-29T14:49:51;72.28;;;52.10;;
40367;SDS011;26075;43.320;21.920;2022-12-29T14:54:54;75.95;;;52.35;;
40367;SDS011;26075;43.320;21.920;2022-12-29T15:00:26;65.65;;;46.13;;
40367;SDS011;26075;43.320;21.920;2022-12-29T15:06:13;63.67;;;44.10;;
40367;SDS011;26075;43.320;21.920;2022-12-29T15:22:32;75.82;;;48.95;;
40367;SDS011;26075;43.320;21.920;2022-12-29T15:27:33;66.57;;;46.15;;
40367;SDS011;26075;43.320;21.920;2022-12-29T15:32:42;88.40;;;54.45;;
40367;SDS011;26075;43.320;21.920;2022-12-29T15:37:44;83.93;;;56.13;;
40367;SDS011;26075;43.320;21.920;2022-12-29T15:48:23;81.63;;;54.45;;
40367;SDS011;26075;43.320;21.920;2022-12-29T15:53:28;93.00;;;58.65;;
40367;SDS011;26075;43.320;21.920;2022-12-29T15:58:39;94.25;;;60.70;;
40367;SDS011;26075;43.320;21.920;2022-12-29T16:03:44;104.18;;;66.88;;
40367;SDS011;26075;43.320;21.920;2022-12-29T16:19:43;37.25;;;25.92;;
40367;SDS011;26075;43.320;21.920;2022-12-29T16:25:01;99.72;;;69.75;;
40367;SDS011;26075;43.320;21.920;2022-12-29T16:30:26;104.83;;;65.90;;
40367;SDS011;26075;43.320;21.920;2022-12-29T16:35:27;97.15;;;65.63;;
40367;SDS011;26075;43.320;21.920;2022-12-29T16:46:28;93.05;;;61.38;;
40367;SDS011;26075;43.320;21.920;2022-12-29T16:51:32;101.93;;;61.50;;
40367;SDS011;26075;43.320;21.920;2022-12-29T17:02:44;97.70;;;59.42;;
40367;SDS011;26075;43.320;21.920;2022-12-29T17:07:46;132.10;;;74.47;;
40367;SDS011;26075;43.320;21.920;2022-12-29T17:18:44;209.13;;;104.57;;
40367;SDS011;26075;43.320;21.920;2022-12-29T17:23:45;226.18;;;124.38;;
40367;SDS011;26075;43.320;21.920;2022-12-29T17:34:43;264.38;;;152.65;;
40367;SDS011;26075;43.320;21.920;2022-12-29T17:39:44;239.32;;;148.98;;
40367;SDS011;26075;43.320;21.920;2022-12-29T17:50:42;280.73;;;170.95;;
40367;SDS011;26075;43.320;21.920;2022-12-29T17:55:45;261.85;;;162.68;;
40367;SDS011;26075;43.320;21.920;2022-12-29T18:00:46;363.45;;;238.82;;
40367;SDS011;26075;43.320;21.920;2022-12-29T18:05:48;373.38;;;260.77;;
40367;SDS011;26075;43.320;21.920;2022-12-29T18:16:46;410.08;;;283.23;;
40367;SDS011;26075;43.320;21.920;2022-12-29T18:21:48;410.60;;;277.67;;
40367;SDS011;26075;43.320;21.920;2022-12-29T18:32:46;365.02;;;257.67;;
40367;SDS011;26075;43.320;21.920;2022-12-29T18:43:44;360.92;;;243.55;;
40367;SDS011;26075;43.320;21.920;2022-12-29T18:48:45;385.60;;;251.55;;
40367;SDS011;26075;43.320;21.920;2022-12-29T18:53:46;400.75;;;255.35;;
40367;SDS011;26075;43.320;21.920;2022-12-29T18:58:48;374.33;;;243.23;;
40367;SDS011;26075;43.320;21.920;2022-12-29T19:03:49;349.05;;;229.43;;
40367;SDS011;26075;43.320;21.920;2022-12-29T19:14:47;265.80;;;174.70;;
40367;SDS011;26075;43.320;21.920;2022-12-29T19:25:27;328.40;;;222.13;;
40367;SDS011;26075;43.320;21.920;2022-12-29T19:30:28;313.70;;;207.48;;
40367;SDS011;26075;43.320;21.920;2022-12-29T19:35:29;298.33;;;201.60;;
40367;SDS011;26075;43.320;21.920;2022-12-29T19:40:30;350.85;;;236.57;;
40367;SDS011;26075;43.320;21.920;2022-12-29T19:45:32;395.20;;;273.50;;
40367;SDS011;26075;43.320;21.920;2022-12-29T19:50:33;366.02;;;257.02;;
40367;SDS011;26075;43.320;21.920;2022-12-29T19:55:34;357.63;;;243.45;;
40367;SDS011;26075;43.320;21.920;2022-12-29T20:00:37;340.27;;;236.43;;
40367;SDS011;26075;43.320;21.920;2022-12-29T20:05:38;369.13;;;246.70;;
40367;SDS011;26075;43.320;21.920;2022-12-29T20:10:40;346.60;;;243.38;;
40367;SDS011;26075;43.320;21.920;2022-12-29T20:15:42;359.52;;;249.82;;
40367;SDS011;26075;43.320;21.920;2022-12-29T20:20:43;410.05;;;284.30;;
40367;SDS011;26075;43.320;21.920;2022-12-29T20:25:44;406.17;;;271.23;;
40367;SDS011;26075;43.320;21.920;2022-12-29T20:30:52;397.27;;;268.02;;
40367;SDS011;26075;43.320;21.920;2022-12-29T20:36:30;386.83;;;267.02;;
40367;SDS011;26075;43.320;21.920;2022-12-29T20:47:16;378.92;;;255.38;;
40367;SDS011;26075;43.320;21.920;2022-12-29T20:52:18;377.80;;;257.13;;
40367;SDS011;26075;43.320;21.920;2022-12-29T21:03:15;323.70;;;212.05;;
40367;SDS011;26075;43.320;21.920;2022-12-29T21:08:16;275.35;;;183.73;;
40367;SDS011;26075;43.320;21.920;2022-12-29T21:13:17;330.05;;;229.15;;
40367;SDS011;26075;43.320;21.920;2022-12-29T21:24:15;229.10;;;155.60;;
40367;SDS011;26075;43.320;21.920;2022-12-29T21:29:18;306.10;;;206.65;;
40367;SDS011;26075;43.320;21.920;2022-12-29T21:34:19;320.92;;;212.88;;
40367;SDS011;26075;43.320;21.920;2022-12-29T21:39:20;292.27;;;192.80;;
40367;SDS011;26075;43.320;21.920;2022-12-29T21:44:21;325.02;;;222.93;;
40367;SDS011;26075;43.320;21.920;2022-12-29T21:55:38;184.25;;;123.05;;
40367;SDS011;26075;43.320;21.920;2022-12-29T22:00:39;293.48;;;194.00;;
40367;SDS011;26075;43.320;21.920;2022-12-29T22:05:58;305.02;;;209.27;;
40367;SDS011;26075;43.320;21.920;2022-12-29T22:17:15;229.95;;;156.10;;
40367;SDS011;26075;43.320;21.920;2022-12-29T22:22:16;218.77;;;147.90;;
40367;SDS011;26075;43.320;21.920;2022-12-29T22:27:17;199.85;;;131.95;;
40367;SDS011;26075;43.320;21.920;2022-12-29T22:32:18;218.93;;;142.27;;
40367;SDS011;26075;43.320;21.920;2022-12-29T22:43:16;176.43;;;118.97;;
40367;SDS011;26075;43.320;21.920;2022-12-29T22:54:16;226.02;;;148.50;;
40367;SDS011;26075;43.320;21.920;2022-12-29T22:59:20;243.25;;;151.40;;
40367;SDS011;26075;43.320;21.920;2022-12-29T23:04:21;226.40;;;153.73;;
40367;SDS011;26075;43.320;21.920;2022-12-29T23:09:22;237.73;;;155.18;;
40367;SDS011;26075;43.320;21.920;2022-12-29T23:20:20;226.23;;;152.30;;
40367;SDS011;26075;43.320;21.920;2022-12-29T23:25:21;244.27;;;155.90;;
40367;SDS011;26075;43.320;21.920;2022-12-29T23:30:22;240.23;;;158.18;;
40367;SDS011;26075;43.320;21.920;2022-12-29T23:41:18;235.20;;;153.27;;
40367;SDS011;26075;43.320;21.920;2022-12-29T23:46:19;204.38;;;134.57;;
40367;SDS011;26075;43.320;21.920;2022-12-29T23:57:19;210.45;;;143.20;;
